Time;durP1;ratioP1;P1;durP2;ratioP2;P2;SDS_P1;SDS_P2;PMS_P1;PMS_P2;Temp;Humidity;BMP_temperature;BMP_pressure;BME280_temperature;BME280_humidity;BME280_pressure;Samples;Min_cycle;Max_cycle;Signal;HPM_P1;HPM_P2
2023/07/22 00:01:26;;;;;;;7.20;4.90;;;;;;;18.92;61.18;100408.74;104824;1257;60746;-63
2023/07/22 00:03:54;;;;;;;6.20;4.20;;;;;;;18.93;61.04;100410.78;104754;1257;62968;-60
2023/07/22 00:06:22;;;;;;;10.50;4.50;;;;;;;18.93;60.95;100415.21;104824;1258;67830;-58
2023/07/22 00:08:49;;;;;;;8.20;4.80;;;;;;;18.90;60.84;100419.59;104859;1262;60460;-71
2023/07/22 00:11:17;;;;;;;7.20;4.20;;;;;;;18.87;61.16;100416.61;104766;1258;63726;-68
2023/07/22 00:13:44;;;;;;;7.70;4.30;;;;;;;18.83;61.21;100409.06;105009;1258;60397;-68
2023/07/22 00:16:12;;;;;;;6.70;4.50;;;;;;;18.81;61.25;100405.02;104751;1257;60576;-67
2023/07/22 00:18:40;;;;;;;8.30;5.00;;;;;;;18.79;61.27;100401.50;104964;1257;63845;-69
2023/07/22 00:21:08;;;;;;;7.20;4.40;;;;;;;18.76;61.18;100394.18;104854;1257;61340;-68
2023/07/22 00:23:36;;;;;;;8.20;4.60;;;;;;;18.73;61.04;100387.38;105222;1259;62506;-68
2023/07/22 00:26:04;;;;;;;6.30;4.10;;;;;;;18.72;60.85;100386.91;105323;1253;60526;-69
2023/07/22 00:28:31;;;;;;;7.70;4.20;;;;;;;18.71;60.97;100385.13;104917;1253;60528;-71
2023/07/22 00:31:00;;;;;;;8.60;4.60;;;;;;;18.71;61.09;100376.79;104990;1253;63700;-70
2023/07/22 00:33:28;;;;;;;6.70;3.90;;;;;;;18.70;61.12;100373.49;105108;1253;61326;-69
2023/07/22 00:35:56;;;;;;;7.50;5.20;;;;;;;18.67;61.25;100370.89;105045;1254;63738;-69
2023/07/22 00:38:23;;;;;;;6.60;4.10;;;;;;;18.65;61.38;100369.70;105116;1253;60457;-70
2023/07/22 00:40:51;;;;;;;9.40;3.80;;;;;;;18.62;61.37;100363.92;105117;1254;60560;-69
2023/07/22 00:43:19;;;;;;;8.50;4.10;;;;;;;18.59;61.25;100357.70;105005;1259;73846;-66
2023/07/22 00:45:46;;;;;;;6.40;3.90;;;;;;;18.55;61.31;100357.42;105034;1259;61284;-67
2023/07/22 00:48:13;;;;;;;7.40;4.00;;;;;;;18.54;61.41;100357.17;105021;1259;63743;-69
2023/07/22 00:50:41;;;;;;;5.50;3.50;;;;;;;18.57;61.48;100356.73;105825;1255;60380;-68
2023/07/22 00:53:09;;;;;;;6.50;4.00;;;;;;;18.62;61.70;100356.70;105029;1253;61226;-63
2023/07/22 00:55:38;;;;;;;5.80;3.60;;;;;;;18.66;61.75;100356.04;105080;1254;64876;-63
2023/07/22 00:58:05;;;;;;;6.80;4.10;;;;;;;18.68;61.59;100352.23;105109;1254;61425;-65
2023/07/22 01:00:33;;;;;;;5.90;3.50;;;;;;;18.69;61.33;100351.26;105013;1259;66325;-64
2023/07/22 01:03:01;;;;;;;6.60;3.90;;;;;;;18.68;61.23;100350.30;105492;1255;60530;-63
2023/07/22 01:05:28;;;;;;;6.20;3.80;;;;;;;18.63;61.24;100351.35;105034;1255;60458;-64
2023/07/22 01:07:56;;;;;;;5.40;3.80;;;;;;;18.59;61.22;100353.25;105008;1253;63687;-65
2023/07/22 01:10:24;;;;;;;7.90;4.00;;;;;;;18.61;61.48;100351.84;105434;1253;61961;-64
2023/07/22 01:12:51;;;;;;;7.00;3.80;;;;;;;18.66;61.66;100351.40;105160;1254;64152;-64
2023/07/22 01:15:19;;;;;;;5.80;3.80;;;;;;;18.71;61.60;100350.64;104877;1253;61240;-58
2023/07/22 01:17:47;;;;;;;6.60;4.30;;;;;;;18.74;61.56;100349.65;105050;1259;60414;-57
2023/07/22 01:20:14;;;;;;;7.00;3.70;;;;;;;18.74;61.52;100357.02;105050;1254;63669;-57
2023/07/22 01:22:42;;;;;;;5.40;3.70;;;;;;;18.74;61.56;100361.16;105049;1259;60470;-57
2023/07/22 01:25:09;;;;;;;7.40;4.60;;;;;;;18.71;61.54;100358.06;104906;1262;63733;-58
2023/07/22 01:27:37;;;;;;;6.30;4.30;;;;;;;18.69;61.57;100359.42;104906;1257;60464;-59
2023/07/22 01:30:06;;;;;;;5.20;3.70;;;;;;;18.67;61.55;100361.64;105019;1255;62171;-59
2023/07/22 01:32:34;;;;;;;5.70;3.40;;;;;;;18.69;61.77;100364.45;105185;1256;63702;-59
2023/07/22 01:35:01;;;;;;;5.80;3.80;;;;;;;18.72;61.89;100369.59;105082;1253;60563;-59
2023/07/22 01:37:29;;;;;;;6.50;3.80;;;;;;;18.74;62.18;100368.48;105095;1255;63722;-58
2023/07/22 01:39:57;;;;;;;6.50;4.20;;;;;;;18.75;62.43;100368.83;105169;1255;60401;-59
2023/07/22 01:42:24;;;;;;;5.60;3.80;;;;;;;18.76;62.52;100364.30;105006;1253;61077;-59
2023/07/22 01:44:52;;;;;;;6.40;3.90;;;;;;;18.75;62.48;100364.16;105508;1254;63632;-60
2023/07/22 01:47:20;;;;;;;6.00;3.80;;;;;;;18.74;62.41;100367.18;105026;1253;61503;-58
2023/07/22 01:49:48;;;;;;;7.30;4.10;;;;;;;18.70;62.23;100368.14;105040;1255;64657;-59
2023/07/22 01:52:15;;;;;;;9.30;3.80;;;;;;;18.68;62.07;100366.12;104993;1253;62006;-60
2023/07/22 01:54:43;;;;;;;6.30;4.00;;;;;;;18.68;62.03;100366.05;104999;1258;60492;-60
2023/07/22 01:57:10;;;;;;;6.60;4.10;;;;;;;18.72;62.20;100364.73;104929;1253;64875;-59
2023/07/22 01:59:38;;;;;;;6.10;3.80;;;;;;;18.73;62.10;100367.48;105116;1259;61361;-60
2023/07/22 02:02:05;;;;;;;6.40;4.20;;;;;;;18.72;62.18;100365.33;104945;1253;63721;-61
2023/07/22 02:04:32;;;;;;;6.70;4.10;;;;;;;18.70;62.68;100364.77;105105;1253;60486;-60
2023/07/22 02:07:00;;;;;;;7.70;4.90;;;;;;;18.66;62.97;100367.92;104925;1254;60493;-61
2023/07/22 02:09:28;;;;;;;5.80;3.80;;;;;;;18.66;63.17;100367.79;105246;1253;65466;-61
2023/07/22 02:11:56;;;;;;;5.90;4.20;;;;;;;18.66;63.09;100369.16;105310;1258;61441;-60
2023/07/22 02:14:24;;;;;;;7.50;4.50;;;;;;;18.67;63.07;100368.16;104993;1260;62642;-63
2023/07/22 02:16:51;;;;;;;7.50;4.50;;;;;;;18.68;62.92;100365.91;105039;1256;60445;-65
2023/07/22 02:19:19;;;;;;;6.90;4.60;;;;;;;18.68;62.82;100366.69;105274;1253;60522;-66
2023/07/22 02:21:47;;;;;;;7.20;5.20;;;;;;;18.67;62.77;100367.82;105031;1259;65007;-66
2023/07/22 02:24:15;;;;;;;6.70;4.70;;;;;;;18.66;62.57;100371.83;105338;1258;60780;-67
2023/07/22 02:26:43;;;;;;;9.80;5.20;;;;;;;18.65;62.32;100373.92;106575;1256;64904;-67
2023/07/22 02:29:12;;;;;;;8.60;4.70;;;;;;;18.65;62.30;100377.48;105745;1253;60434;-67
2023/07/22 02:31:39;;;;;;;6.90;4.50;;;;;;;18.68;62.13;100373.98;105221;1253;60533;-66
2023/07/22 02:34:07;;;;;;;7.20;4.40;;;;;;;18.73;62.05;100374.25;105937;1254;64915;-64
2023/07/22 02:36:35;;;;;;;7.90;5.00;;;;;;;18.78;61.85;100373.88;104998;1253;61290;-65
2023/07/22 02:39:03;;;;;;;10.20;5.50;;;;;;;18.82;61.93;100371.13;105980;1256;64207;-65
2023/07/22 02:41:30;;;;;;;6.70;4.40;;;;;;;18.84;61.81;100368.23;105003;1254;60546;-65
2023/07/22 02:43:59;;;;;;;7.60;4.30;;;;;;;18.85;61.89;100362.57;105226;1257;60363;-64
2023/07/22 02:46:26;;;;;;;10.10;4.80;;;;;;;18.85;61.89;100365.80;104996;1253;64914;-61
2023/07/22 02:48:55;;;;;;;7.70;5.10;;;;;;;18.85;62.07;100370.80;104902;1258;60541;-64
2023/07/22 02:51:22;;;;;;;8.00;5.00;;;;;;;18.88;61.87;100373.20;105460;1259;63707;-65
2023/07/22 02:53:50;;;;;;;7.20;5.20;;;;;;;18.94;61.56;100378.27;104975;1258;61992;-66
2023/07/22 02:56:17;;;;;;;7.00;4.90;;;;;;;18.98;61.20;100382.40;105105;1254;60403;-67
2023/07/22 02:58:45;;;;;;;8.50;5.10;;;;;;;19.00;60.86;100383.12;105147;1253;64894;-62
2023/07/22 03:01:13;;;;;;;10.20;5.30;;;;;;;19.02;60.60;100379.08;105176;1257;60472;-63
2023/07/22 03:03:41;;;;;;;9.60;5.00;;;;;;;19.03;60.50;100378.40;105693;1254;63061;-64
2023/07/22 03:06:09;;;;;;;9.10;5.80;;;;;;;19.05;60.69;100377.52;104982;1253;60552;-63
2023/07/22 03:08:37;;;;;;;9.60;5.40;;;;;;;19.08;60.90;100375.93;105376;1255;60452;-63
2023/07/22 03:11:05;;;;;;;9.40;5.00;;;;;;;19.10;60.98;100372.95;105072;1254;65413;-64
2023/07/22 03:13:33;;;;;;;7.10;4.50;;;;;;;19.14;60.93;100371.36;104850;1261;61520;-70
2023/07/22 03:16:04;;;;;;;5.80;4.50;;;;;;;19.19;61.05;100368.30;105904;1261;63753;-63
2023/07/22 03:18:32;;;;;;;7.10;5.30;;;;;;;19.24;61.20;100364.70;105060;1259;60630;-63
2023/07/22 03:21:00;;;;;;;7.30;5.00;;;;;;;19.27;61.43;100365.52;105017;1259;60615;-64
2023/07/22 03:23:27;;;;;;;6.50;4.80;;;;;;;19.32;61.59;100361.59;104925;1253;63740;-63
2023/07/22 03:25:55;;;;;;;7.60;5.00;;;;;;;19.35;61.69;100355.59;105014;1257;60754;-62
2023/07/22 03:28:22;;;;;;;8.30;5.10;;;;;;;19.37;62.00;100355.48;105027;1259;70666;-63
2023/07/22 03:30:50;;;;;;;7.20;4.50;;;;;;;19.41;62.34;100350.73;105130;1256;60424;-61
2023/07/22 03:33:17;;;;;;;7.90;4.70;;;;;;;19.47;62.76;100347.73;104979;1259;62284;-64
2023/07/22 03:35:45;;;;;;;7.30;5.10;;;;;;;19.52;63.08;100348.61;105047;1259;65510;-65
2023/07/22 03:38:13;;;;;;;8.20;4.80;;;;;;;19.57;63.45;100350.73;105067;1259;60891;-61
2023/07/22 03:40:41;;;;;;;8.10;4.90;;;;;;;19.60;63.72;100347.82;104906;1257;63656;-62
2023/07/22 03:43:08;;;;;;;7.90;5.40;;;;;;;19.63;63.99;100349.80;105098;1253;60477;-62
2023/07/22 03:45:36;;;;;;;7.80;4.80;;;;;;;19.68;63.97;100349.17;105315;1253;60560;-65
2023/07/22 03:48:03;;;;;;;7.70;4.90;;;;;;;19.76;64.03;100350.20;105541;1259;64948;-63
2023/07/22 03:50:31;;;;;;;8.10;5.30;;;;;;;19.81;63.97;100347.98;105082;1254;61496;-64
2023/07/22 03:52:58;;;;;;;6.90;4.70;;;;;;;19.84;63.98;100344.08;104950;1257;63811;-65
2023/07/22 03:55:26;;;;;;;7.90;5.30;;;;;;;19.88;64.00;100341.11;105038;1259;60510;-63
2023/07/22 03:57:54;;;;;;;7.60;4.70;;;;;;;19.90;63.91;100340.39;104960;1253;60449;-65
2023/07/22 04:00:22;;;;;;;6.80;4.90;;;;;;;19.91;63.80;100342.21;105012;1253;63604;-65
2023/07/22 04:02:49;;;;;;;7.00;4.50;;;;;;;19.95;64.00;100344.23;105000;1260;60980;-61
2023/07/22 04:05:17;;;;;;;7.00;4.70;;;;;;;20.01;64.20;100346.86;105086;1257;64457;-65
2023/07/22 04:07:45;;;;;;;10.10;5.20;;;;;;;20.09;64.09;100351.08;105190;1255;60595;-65
2023/07/22 04:10:12;;;;;;;6.50;4.70;;;;;;;20.14;64.18;100352.70;105062;1253;60543;-62
2023/07/22 04:12:40;;;;;;;9.80;5.00;;;;;;;20.16;64.44;100353.43;104917;1253;64868;-64
2023/07/22 04:15:09;;;;;;;7.40;5.10;;;;;;;20.18;64.53;100352.42;105233;1253;61319;-66
2023/07/22 04:17:37;;;;;;;6.60;4.50;;;;;;;20.25;64.65;100351.10;104923;1256;63648;-67
2023/07/22 04:20:07;;;;;;;7.00;5.10;;;;;;;20.34;64.70;100350.34;104919;1261;60490;-67
2023/07/22 04:22:35;;;;;;;8.00;4.50;;;;;;;20.40;64.71;100350.79;105216;1253;60540;-66
2023/07/22 04:25:03;;;;;;;6.60;4.60;;;;;;;20.44;64.58;100352.22;105042;1254;64938;-64
2023/07/22 04:27:31;;;;;;;7.90;4.60;;;;;;;20.44;64.60;100351.94;104945;1259;61462;-65
2023/07/22 04:29:59;;;;;;;6.80;4.60;;;;;;;20.46;64.97;100354.42;105124;1256;64844;-65
2023/07/22 04:32:27;;;;;;;6.60;4.80;;;;;;;20.48;65.06;100353.30;105061;1254;60477;-64
2023/07/22 04:34:54;;;;;;;6.30;4.90;;;;;;;20.52;65.16;100351.46;104957;1259;60432;-63
2023/07/22 04:37:22;;;;;;;6.00;4.60;;;;;;;20.59;65.20;100348.45;104973;1258;65006;-64
2023/07/22 04:39:50;;;;;;;6.70;4.20;;;;;;;20.66;65.05;100347.52;104930;1253;61344;-65
2023/07/22 04:42:17;;;;;;;6.80;4.30;;;;;;;20.72;64.92;100354.09;105018;1255;63772;-62
2023/07/22 04:44:45;;;;;;;6.30;4.20;;;;;;;20.77;64.57;100360.36;104935;1259;60445;-63
2023/07/22 04:47:12;;;;;;;7.10;4.30;;;;;;;20.80;63.75;100359.88;105288;1256;60634;-61
2023/07/22 04:49:40;;;;;;;7.20;4.70;;;;;;;20.79;63.17;100358.56;105179;1253;64854;-61
2023/07/22 04:52:07;;;;;;;6.90;4.20;;;;;;;20.79;62.62;100359.84;105257;1253;61418;-62
2023/07/22 04:54:35;;;;;;;10.60;4.20;;;;;;;20.77;62.18;100355.11;105255;1259;62897;-59
2023/07/22 04:57:03;;;;;;;6.30;4.20;;;;;;;20.77;62.09;100349.33;105421;1257;60748;-62
2023/07/22 04:59:31;;;;;;;7.30;3.90;;;;;;;20.80;62.00;100353.67;105422;1256;62079;-62
2023/07/22 05:01:58;;;;;;;6.80;3.80;;;;;;;20.81;61.77;100355.65;105209;1253;365031;-60
2023/07/22 05:06:09;;;;;;;8.50;4.00;;;;;;;20.57;61.55;100359.94;102386;1295;601232;-63
2023/07/22 05:08:38;;;;;;;8.50;3.70;;;;;;;20.69;60.42;100359.46;104966;1257;59328;-62
2023/07/22 05:11:06;;;;;;;6.80;4.00;;;;;;;20.66;59.94;100355.91;105453;1259;59305;-61
2023/07/22 05:13:34;;;;;;;5.50;3.80;;;;;;;20.63;59.75;100356.31;105151;1263;63515;-62
2023/07/22 05:16:01;;;;;;;4.80;2.90;;;;;;;20.57;59.91;100357.80;105047;1263;60829;-61
2023/07/22 05:18:29;;;;;;;7.20;3.10;;;;;;;20.52;60.09;100355.41;104883;1261;210375;-61
2023/07/22 05:20:56;;;;;;;10.60;3.40;;;;;;;20.50;60.00;100345.52;105236;1257;61866;-61
2023/07/22 05:23:24;;;;;;;5.20;2.90;;;;;;;20.51;60.02;100339.12;105393;1254;59262;-60
2023/07/22 05:25:52;;;;;;;6.40;3.40;;;;;;;20.52;60.22;100335.83;104980;1254;64360;-60
2023/07/22 05:28:20;;;;;;;5.20;3.00;;;;;;;20.52;60.54;100333.49;104956;1257;61780;-62
2023/07/22 05:30:51;;;;;;;5.60;2.90;;;;;;;20.52;60.45;100333.81;104995;1260;62485;-59
2023/07/22 05:33:18;;;;;;;5.90;3.30;;;;;;;20.53;60.31;100333.45;104996;1258;59701;-49
2023/07/22 05:35:46;;;;;;;4.80;3.00;;;;;;;20.51;60.34;100332.36;104969;1260;59742;-49
2023/07/22 05:38:15;;;;;;;6.70;3.20;;;;;;;20.49;60.64;100334.64;104987;1260;62869;-54
2023/07/22 05:40:43;;;;;;;4.90;2.80;;;;;;;20.48;60.69;100332.66;105062;1260;69144;-54
2023/07/22 05:43:10;;;;;;;5.90;2.80;;;;;;;20.47;60.82;100333.27;104854;1257;63672;-62
2023/07/22 05:45:38;;;;;;;6.40;3.40;;;;;;;20.49;61.07;100333.23;105196;1260;59743;-60
2023/07/22 05:48:05;;;;;;;5.50;3.10;;;;;;;20.48;61.36;100340.06;104936;1254;59762;-60
2023/07/22 05:50:33;;;;;;;4.80;3.00;;;;;;;20.48;61.80;100341.88;105165;1259;62853;-60
2023/07/22 05:53:01;;;;;;;6.30;3.30;;;;;;;20.45;62.30;100349.20;104965;1255;61952;-61
2023/07/22 05:55:28;;;;;;;4.90;3.10;;;;;;;20.41;62.82;100352.48;104817;1254;63693;-61
2023/07/22 05:57:56;;;;;;;5.70;2.80;;;;;;;20.39;62.61;100348.27;104865;1255;59668;-58
2023/07/22 06:00:23;;;;;;;6.90;3.40;;;;;;;20.40;62.54;100351.77;104965;1254;59711;-61
2023/07/22 06:02:51;;;;;;;6.70;3.90;;;;;;;20.38;62.53;100350.07;105012;1262;64138;-60
2023/07/22 06:05:18;;;;;;;6.10;3.50;;;;;;;20.34;62.72;100349.48;104889;1258;61374;-60
2023/07/22 06:07:46;;;;;;;5.60;3.60;;;;;;;20.31;62.77;100356.64;104927;1260;63721;-63
2023/07/22 06:10:13;;;;;;;6.40;3.30;;;;;;;20.28;63.18;100360.01;105053;1257;59672;-60
2023/07/22 06:12:41;;;;;;;6.60;3.50;;;;;;;20.25;63.50;100363.23;104915;1258;59886;-59
2023/07/22 06:15:09;;;;;;;6.50;3.90;;;;;;;20.21;63.72;100363.34;105442;1257;64052;-57
2023/07/22 06:17:36;;;;;;;6.40;3.80;;;;;;;20.20;64.05;100365.59;104962;1261;61325;-57
2023/07/22 06:20:05;;;;;;;5.70;3.50;;;;;;;20.18;64.60;100370.67;105047;1257;63778;-58
2023/07/22 06:22:32;;;;;;;6.50;3.60;;;;;;;20.17;64.91;100369.83;105377;1257;59858;-57
2023/07/22 06:25:00;;;;;;;8.20;3.30;;;;;;;20.17;65.09;100372.88;105376;1260;59599;-60
2023/07/22 06:27:28;;;;;;;6.60;3.90;;;;;;;20.17;65.42;100376.05;105044;1260;64167;-59
2023/07/22 06:29:56;;;;;;;6.00;3.70;;;;;;;20.17;65.54;100375.38;105187;1260;61472;-60
2023/07/22 06:32:24;;;;;;;6.00;3.10;;;;;;;20.17;65.68;100382.98;105419;1260;63822;-60
2023/07/22 06:34:51;;;;;;;5.60;3.40;;;;;;;20.21;65.76;100388.41;104989;1260;59790;-58
2023/07/22 06:37:19;;;;;;;6.90;3.60;;;;;;;20.22;65.58;100391.52;104955;1260;59765;-55
2023/07/22 06:39:46;;;;;;;6.20;3.50;;;;;;;20.22;65.81;100395.05;104934;1257;62916;-55
2023/07/22 06:42:13;;;;;;;6.90;3.60;;;;;;;20.21;66.09;100396.64;105067;1258;61356;-54
2023/07/22 06:44:41;;;;;;;6.70;2.80;;;;;;;20.21;66.19;100393.89;104836;1258;62660;-58
2023/07/22 06:47:08;;;;;;;7.80;3.30;;;;;;;20.25;65.97;100396.55;104964;1256;59756;-54
2023/07/22 06:49:36;;;;;;;6.50;3.40;;;;;;;20.27;66.06;100394.66;104951;1257;59683;-55
2023/07/22 06:52:04;;;;;;;7.50;3.20;;;;;;;20.28;66.12;100391.55;105237;1260;64423;-55
2023/07/22 06:54:31;;;;;;;5.50;3.60;;;;;;;20.31;65.73;100390.30;105115;1260;61863;-56
2023/07/22 06:56:59;;;;;;;5.80;3.60;;;;;;;20.31;65.61;100389.77;105011;1257;63798;-54
2023/07/22 06:59:26;;;;;;;6.60;3.90;;;;;;;20.26;65.34;100394.03;104968;1256;59649;-54
2023/07/22 07:01:54;;;;;;;8.20;3.70;;;;;;;20.21;65.51;100393.95;104942;1258;59650;-57
2023/07/22 07:04:22;;;;;;;8.10;3.80;;;;;;;20.19;65.91;100390.54;105084;1258;64057;-54
2023/07/22 07:06:50;;;;;;;6.90;3.40;;;;;;;20.20;65.75;100390.05;104812;1263;60233;-56
2023/07/22 07:09:17;;;;;;;5.00;3.10;;;;;;;20.21;65.98;100391.25;105224;1254;63732;-56
2023/07/22 07:11:45;;;;;;;6.30;3.80;;;;;;;20.20;66.22;100386.52;105175;1254;59560;-56
2023/07/22 07:14:12;;;;;;;7.00;3.70;;;;;;;20.22;66.44;100382.39;105245;1254;60030;-55
2023/07/22 07:16:40;;;;;;;8.20;3.70;;;;;;;20.24;66.67;100379.30;105123;1254;64120;-55
2023/07/22 07:19:07;;;;;;;6.10;3.60;;;;;;;20.26;66.70;100380.91;105111;1254;62262;-56
2023/07/22 07:21:36;;;;;;;4.80;3.10;;;;;;;20.27;66.74;100386.48;105324;1257;63889;-58
2023/07/22 07:24:03;;;;;;;4.90;3.20;;;;;;;20.29;66.86;100388.11;105133;1254;59623;-58
2023/07/22 07:26:31;;;;;;;5.40;3.10;;;;;;;20.31;66.67;100383.66;105172;1254;59768;-58
2023/07/22 07:28:58;;;;;;;5.90;3.30;;;;;;;20.31;66.94;100380.80;105203;1257;64032;-58
2023/07/22 07:31:27;;;;;;;8.60;3.30;;;;;;;20.32;67.10;100384.41;105126;1260;61467;-59
2023/07/22 07:33:57;;;;;;;8.00;3.50;;;;;;;20.32;67.26;100381.07;105263;1256;63852;-58
2023/07/22 07:36:24;;;;;;;7.10;3.70;;;;;;;20.31;67.41;100376.36;105140;1254;59727;-58
2023/07/22 07:38:52;;;;;;;5.80;3.20;;;;;;;20.30;67.35;100374.39;105210;1254;60713;-57
2023/07/22 07:41:20;;;;;;;5.90;3.40;;;;;;;20.31;67.27;100376.37;105221;1256;64172;-58
2023/07/22 07:43:48;;;;;;;7.10;3.40;;;;;;;20.34;67.22;100371.69;105465;1254;61314;-56
2023/07/22 07:46:17;;;;;;;5.50;3.40;;;;;;;20.39;67.15;100374.45;105412;1254;63828;-59
2023/07/22 07:48:47;;;;;;;6.20;3.30;;;;;;;20.43;67.13;100374.21;105239;1254;60199;-58
2023/07/22 07:51:14;;;;;;;6.10;3.70;;;;;;;20.44;66.99;100373.94;105168;1256;59560;-59
2023/07/22 07:56:45;;;;;;;5.60;3.60;;;;;;;20.36;67.08;100362.34;108817;1259;61451;-89
2023/07/22 07:59:18;;;;;;;6.40;3.30;;;;;;;20.39;66.99;100354.55;108870;1259;63950;-89
2023/07/22 08:01:47;;;;;;;5.50;3.40;;;;;;;20.43;66.73;100352.05;108860;1260;57650;-90
2023/07/22 08:04:28;;;;;;;6.50;3.30;;;;;;;20.45;66.66;100352.70;108655;1260;57453;-90
2023/07/22 08:07:09;;;;;;;5.20;3.40;;;;;;;20.47;66.84;100348.31;108702;1260;67556;-89
2023/07/22 08:09:42;;;;;;;7.30;3.60;;;;;;;20.50;66.71;100343.38;108556;1260;61525;-90
2023/07/22 08:12:10;;;;;;;5.70;3.30;;;;;;;20.53;66.64;100343.73;108377;1262;62502;-89
2023/07/22 08:14:40;;;;;;;5.70;3.50;;;;;;;20.56;66.65;100344.23;108712;1262;63360;-90
2023/07/22 08:17:10;;;;;;;5.10;3.10;;;;;;;20.60;66.58;100341.43;108550;1262;57491;-89
2023/07/22 08:19:37;;;;;;;5.80;3.70;;;;;;;20.60;66.45;100346.38;108505;1262;64151;-90
2023/07/22 08:22:08;;;;;;;6.80;3.60;;;;;;;20.61;66.70;100346.63;108702;1261;62376;-85
2023/07/22 08:24:35;;;;;;;8.00;4.00;;;;;;;20.63;66.85;100340.05;108319;1262;64977;-85
2023/07/22 08:27:06;;;;;;;8.60;3.90;;;;;;;20.64;66.87;100337.41;108489;1263;57598;-89
2023/07/22 08:29:34;;;;;;;8.50;3.70;;;;;;;20.68;66.74;100337.45;108575;1261;57624;-89
2023/07/22 08:32:09;;;;;;;8.70;3.70;;;;;;;20.72;66.74;100333.39;108698;1261;64221;-85
2023/07/22 08:34:36;;;;;;;6.10;3.50;;;;;;;20.78;66.86;100328.72;108451;1262;61739;-84
2023/07/22 08:37:04;;;;;;;5.70;3.50;;;;;;;20.83;66.84;100321.11;108369;1262;63438;-85
2023/07/22 08:39:35;;;;;;;7.70;3.80;;;;;;;20.86;66.78;100317.96;108653;1263;57395;-85
2023/07/22 08:42:03;;;;;;;6.60;3.30;;;;;;;20.86;66.99;100317.92;108758;1262;57726;-84
2023/07/22 08:44:35;;;;;;;7.00;3.80;;;;;;;20.89;67.01;100316.64;108675;1261;73640;-89
2023/07/22 08:47:06;;;;;;;6.60;3.20;;;;;;;20.96;67.02;100318.30;108643;1262;60304;-85
2023/07/22 08:49:34;;;;;;;6.60;3.90;;;;;;;21.03;67.11;100327.05;108664;1262;62595;-85
2023/07/22 08:52:17;;;;;;;5.90;3.60;;;;;;;21.09;66.98;100329.58;108712;1262;57411;-89
2023/07/22 08:54:45;;;;;;;6.60;3.40;;;;;;;21.12;66.92;100330.08;108496;1262;57529;-85
2023/07/22 08:57:15;;;;;;;5.40;3.30;;;;;;;21.13;66.88;100328.52;108390;1262;64239;-86
2023/07/22 08:59:44;;;;;;;6.80;3.20;;;;;;;21.11;66.71;100326.91;108809;1261;61390;-85
2023/07/22 09:02:12;;;;;;;6.70;3.80;;;;;;;21.07;66.77;100325.40;108398;1262;63327;-85
2023/07/22 09:04:45;;;;;;;4.60;2.60;;;;;;;21.05;66.56;100323.73;108678;1263;64350;-85
2023/07/22 09:07:18;;;;;;;5.00;3.00;;;;;;;20.99;66.35;100318.05;108647;1262;58155;-91
2023/07/22 09:09:46;;;;;;;5.60;3.10;;;;;;;20.97;66.05;100324.91;108777;1262;64081;-85
2023/07/22 09:12:14;;;;;;;7.10;3.70;;;;;;;20.98;66.16;100328.20;108698;1262;60672;-87
2023/07/22 09:14:41;;;;;;;4.90;2.80;;;;;;;20.95;66.38;100329.63;108659;1261;63679;-88
2023/07/22 09:17:23;;;;;;;7.30;3.00;;;;;;;20.93;66.20;100329.01;108743;1262;64042;-86
2023/07/22 09:19:53;;;;;;;5.20;3.00;;;;;;;20.87;66.16;100332.02;108734;1262;58309;-86
2023/07/22 09:22:44;;;;;;;4.70;2.90;;;;;;;20.82;65.81;100329.20;108491;1262;64913;-91
2023/07/22 09:25:39;;;;;;;4.80;2.50;;;;;;;20.75;65.78;100322.80;108328;1262;62241;-87
2023/07/22 09:28:06;;;;;;;5.10;2.60;;;;;;;20.73;65.85;100321.55;108810;1262;63895;-85
2023/07/22 09:30:39;;;;;;;6.70;2.80;;;;;;;20.75;65.90;100316.77;108322;1262;59050;-86
2023/07/22 09:33:21;;;;;;;5.60;2.90;;;;;;;20.80;66.00;100314.77;108751;1263;58359;-84
2023/07/22 09:35:49;;;;;;;4.70;2.40;;;;;;;20.83;65.79;100312.59;108636;1262;66105;-86
2023/07/22 09:38:24;;;;;;;4.60;2.60;;;;;;;20.83;65.74;100313.01;108429;1262;61590;-86
2023/07/22 09:40:54;;;;;;;4.30;2.70;;;;;;;20.83;65.66;100304.29;108345;1262;62493;-86
2023/07/22 09:43:22;;;;;;;5.30;2.90;;;;;;;20.82;65.52;100298.86;108711;1262;58455;-91
2023/07/22 09:45:50;;;;;;;6.20;2.80;;;;;;;20.83;65.46;100290.17;108592;1262;58525;-84
2023/07/22 09:48:18;;;;;;;5.40;2.70;;;;;;;20.82;65.49;100287.58;108315;1262;63744;-84
2023/07/22 09:50:58;;;;;;;5.80;3.10;;;;;;;20.81;65.33;100278.67;108463;1262;62467;-84
2023/07/22 09:53:26;;;;;;;6.90;3.10;;;;;;;20.78;65.53;100269.16;108789;1262;64184;-84
2023/07/22 09:55:53;;;;;;;5.60;2.80;;;;;;;20.76;65.79;100263.08;108341;1263;59724;-84
2023/07/22 09:58:21;;;;;;;4.90;2.60;;;;;;;20.71;65.71;100254.81;108844;1262;58067;-84
2023/07/22 10:00:48;;;;;;;4.90;2.40;;;;;;;20.67;65.99;100249.86;108764;1263;64969;-89
2023/07/22 10:03:16;;;;;;;6.80;3.00;;;;;;;20.68;66.18;100245.14;108611;1261;61884;-88
2023/07/22 10:05:49;;;;;;;5.50;3.10;;;;;;;20.68;66.23;100238.33;108675;1262;64035;-87
2023/07/22 10:08:18;;;;;;;7.00;3.00;;;;;;;20.67;66.31;100229.44;108687;1263;58126;-83
2023/07/22 10:10:47;;;;;;;5.60;3.20;;;;;;;20.63;66.22;100232.00;108669;1262;60374;-85
2023/07/22 10:13:15;;;;;;;6.60;3.40;;;;;;;20.59;66.34;100229.97;108602;1261;63707;-89
2023/07/22 10:15:48;;;;;;;5.50;3.40;;;;;;;20.60;66.72;100223.67;108515;1262;61456;-85
2023/07/22 10:18:17;;;;;;;6.10;3.20;;;;;;;20.63;66.81;100220.48;108721;1262;62798;-90
2023/07/22 10:20:44;;;;;;;7.90;3.50;;;;;;;20.64;66.80;100213.83;108477;1261;58380;-90
2023/07/22 10:23:14;;;;;;;5.00;2.90;;;;;;;20.65;67.18;100205.66;108638;1263;58312;-89
2023/07/22 10:25:42;;;;;;;10.60;3.60;;;;;;;20.64;67.37;100212.50;108664;1262;64998;-85
2023/07/22 10:28:14;;;;;;;7.00;3.30;;;;;;;20.61;67.49;100208.59;108755;1262;60205;-88
2023/07/22 10:30:42;;;;;;;5.50;3.30;;;;;;;20.54;67.57;100202.48;108510;1261;74632;-89
2023/07/22 10:33:10;;;;;;;5.80;3.20;;;;;;;20.50;67.52;100201.76;108461;1262;59362;-89
2023/07/22 10:35:44;;;;;;;5.50;3.30;;;;;;;20.48;67.50;100203.60;108663;1261;58666;-84
2023/07/22 10:38:14;;;;;;;4.40;2.70;;;;;;;20.47;67.52;100191.82;108803;1261;63736;-88
2023/07/22 10:40:52;;;;;;;5.90;3.30;;;;;;;20.43;67.53;100188.34;108776;1261;63829;-84
2023/07/22 10:43:30;;;;;;;9.80;3.30;;;;;;;20.39;67.70;100195.05;108497;1261;63210;-84
2023/07/22 10:45:59;;;;;;;5.30;2.80;;;;;;;20.35;67.84;100192.21;108644;1261;58194;-89
2023/07/22 10:48:27;;;;;;;5.20;3.10;;;;;;;20.27;67.83;100192.84;108733;1262;58028;-84
2023/07/22 10:51:15;;;;;;;4.20;2.30;;;;;;;20.20;67.77;100186.02;108466;1261;65018;-88
2023/07/22 10:53:57;;;;;;;4.50;2.60;;;;;;;20.17;67.90;100179.97;108769;1262;61169;-84
2023/07/22 10:56:29;;;;;;;5.80;3.00;;;;;;;20.15;67.91;100181.80;108629;1262;63727;-90
2023/07/22 10:59:27;;;;;;;5.00;2.70;;;;;;;20.16;67.97;100179.98;108789;1262;58113;-89
2023/07/22 11:01:58;;;;;;;4.70;2.80;;;;;;;20.13;68.24;100180.28;108738;1262;58182;-90
2023/07/22 11:05:00;;;;;;;7.40;2.70;;;;;;;20.12;68.56;100171.92;108598;1262;63674;-87
2023/07/22 11:07:42;;;;;;;5.20;2.80;;;;;;;20.10;68.56;100189.73;108718;1262;60828;-88
2023/07/22 11:10:19;;;;;;;4.60;2.60;;;;;;;20.08;68.62;100199.60;108415;1261;64564;-85
2023/07/22 11:12:47;;;;;;;3.50;2.30;;;;;;;20.05;68.59;100184.45;108744;1262;58181;-85
2023/07/22 11:15:28;;;;;;;6.00;2.80;;;;;;;20.01;68.66;100179.85;108730;1262;58092;-85
2023/07/22 11:17:56;;;;;;;4.50;2.60;;;;;;;19.98;69.00;100185.73;108254;1262;64951;-84
2023/07/22 11:20:26;;;;;;;4.70;2.90;;;;;;;19.98;68.98;100184.38;108734;1262;64780;-84
2023/07/22 11:22:54;;;;;;;5.00;2.40;;;;;;;19.95;69.33;100182.41;108768;1262;64703;-84
2023/07/22 11:25:21;;;;;;;6.00;2.50;;;;;;;19.94;69.54;100177.88;108769;1263;58100;-89
2023/07/22 11:27:49;;;;;;;5.20;2.70;;;;;;;19.94;69.40;100173.36;108682;1262;58232;-86
2023/07/22 11:30:16;;;;;;;4.90;2.30;;;;;;;19.96;69.36;100172.80;108500;1264;65354;-89